Record high temperature 32.9°C Record low temperature -8.5°C Record high gust 255.3 mph Record high average 172.4 mph Record daily rain 43.6 mm Record low windchill -14.8°C Record high barometer 1052.1 hPa Record low barometer 963.2 hPa
Daily high pressure 1028.6 hPa Daily low pressure 1014.0 hPa Daily low windchill 7.5°C Daily high heat index 16.7°C Daily high gust speed 18.4 mph SW Daily high average speed 13.3 mph W
Seaford Weather Data
LAST READING AT TIME: 21:30 DATE: 06 April 2020, time of next update: 22:00
Current WeatherNight time/Dry/Clear Current Temperature 9.6°C (49.3°F), Apparent temp 7.2°C
Maximum Temperature (since midnight)16.7°C at: 12:00 AM Minimum Temperature (since midnight)9.6°C at: 9:21 PM
Average windspeed (ten minute)7.2 mph Wind Direction (ten minute)W (266°)
Windchill Temperature 7.9°C Maximum Gust (last hour)12.0 mph at: 20:43
Maximum Gust (since midnight)18.4 mph at: 14:22 Maximum 1 minute average (since midnight)13.3 mph at: 14:08
Rainfall (last hour)0.0 mm Rainfall (since midnight)0.0 mm (0.00 in.)---
Rainfall This month 0.0 mm (0.00 in.) Rainfall To date this year 328.4 mm (12.93 in.)
Maximum rain per minute (last hour)0.0 mm/min Maximum rain per hour (last 6 hours)0.0 mm/hour
Yesterdays rainfall 0.0 mm DewPoint 7.4°C (Wet Bulb :8.5°C )
Humidity 86 %, Humidex 9.8°C Barometer corrected to msl1028.5 hPa
Pressure change +0.7 hPa (last hour) Trend (last hour)RISING SLOWLY
Pressure change (last 12 hours)+10.4 hPa Pressure change (last 6 hours)+4.8 hPa
Current 06:49 hours of sunshine today, current sky: Night time/Dry/Clear
Sunshine hours for the year: 264:25 hrs Sunshine hours for the month: 36:57 hrs
Current evapotranspiration rate 3.7 mm per day. Yesterday's reading 3.8


Click here to listen to the current weather conditions


Weather report/warning/Metars

Shoreham Airport, United Kingdom (EGKA) 50-50N 000-17W 0M
Apr 06, 2020 - 12:50 PM EDT / 2020.04.06 1650 UTC
Wind: from the WSW (240 degrees) at 17 MPH (15 KT):0
Visibility: greater than 7 mile(s):0
Temperature: 55 F (13 C)
Dew Point: 46 F (8 C)
Relative Humidity: 71%
Pressure (altimeter): 30.18 in. Hg (1022 hPa)
ob: EGKA 061650Z 24015KT CAVOK 13/08 Q1022
cycle: 17
Yeovilton, United Kingdom (EGDY) 51-00N 002-38W 0M
Apr 06, 2020 - 03:50 PM EDT / 2020.04.06 1950 UTC
Wind: from the WNW (290 degrees) at 2 MPH (2 KT):0
Visibility: greater than 7 mile(s):0
Sky conditions: mostly clear
Temperature: 48 F (9 C)
Dew Point: 39 F (4 C)
Relative Humidity: 70%
Pressure (altimeter): 30.27 in. Hg (1025 hPa)
ob: EGDY 061950Z 29002KT 9999 FEW040 09/04 Q1025 BLU
cycle: 20
Luton Airport , United Kingdom (EGGW) 51-52N 000-22W
Apr 06, 2020 - 03:50 PM EDT / 2020.04.06 1950 UTC
Wind: from the WSW (250 degrees) at 9 MPH (8 KT):0
Visibility: greater than 7 mile(s):0
Temperature: 48 F (9 C)
Dew Point: 35 F (2 C)
Relative Humidity: 61%
Pressure (altimeter): 30.24 in. Hg (1024 hPa)
ob: EGGW 061950Z AUTO 25008KT 9999 NCD 09/02 Q1024
cycle: 20
Bournemouth Airport, United Kingdom (EGHH) 50-47N 001-50W 0M
Apr 06, 2020 - 11:20 AM EDT / 2020.04.06 1520 UTC
Wind: from the WSW (240 degrees) at 13 MPH (11 KT):0
Visibility: greater than 7 mile(s):0
Sky conditions: mostly clear
Temperature: 60 F (16 C)
Dew Point: 42 F (6 C)
Relative Humidity: 51%
Pressure (altimeter): 30.15 in. Hg (1021 hPa)
ob: EGHH 061520Z 24011KT 9999 FEW035 16/06 Q1021
cycle: 15
Guernsey Airport, United Kingdom (EGJB) 49-26N 002-36W 0M
Apr 06, 2020 - 03:50 PM EDT / 2020.04.06 1950 UTC
Wind: from the NW (320 degrees) at 1 MPH (1 KT):0
Visibility: greater than 7 mile(s):0
Weather: shallow fog
Temperature: 48 F (9 C)
Dew Point: 48 F (9 C)
Relative Humidity: 100%
Pressure (altimeter): 30.30 in. Hg (1026 hPa)
ob: EGJB 061950Z 32001KT 9999 MIFG NSC 09/09 Q1026
cycle: 20
Jersey Airport, United Kingdom (EGJJ) 49-13N 002-12W 0M
Apr 06, 2020 - 03:50 PM EDT / 2020.04.06 1950 UTC
Wind: from the NNE (020 degrees) at 5 MPH (4 KT):0
Visibility: greater than 7 mile(s):0
Temperature: 50 F (10 C)
Dew Point: 46 F (8 C)
Relative Humidity: 87%
Pressure (altimeter): 30.27 in. Hg (1025 hPa)
ob: EGJJ 061950Z AUTO 02004KT 9999 NCD 10/08 Q1025
cycle: 20
London / Gatwick Airport, United Kingdom (EGKK) 51-09N 000-11W 0M
Apr 06, 2020 - 03:50 PM EDT / 2020.04.06 1950 UTC
Wind: from the SW (220 degrees) at 5 MPH (4 KT):0
Visibility: greater than 7 mile(s):0
Temperature: 53 F (12 C)
Dew Point: 41 F (5 C)
Relative Humidity: 62%
Pressure (altimeter): 30.27 in. Hg (1025 hPa)
ob: EGKK 061950Z 22004KT CAVOK 12/05 Q1025
cycle: 20
London / Heathrow Airport, United Kingdom (EGLL) 51-29N 000-27W 0M
Apr 06, 2020 - 03:50 PM EDT / 2020.04.06 1950 UTC
Wind: from the WNW (300 degrees) at 3 MPH (3 KT):0
Visibility: greater than 7 mile(s):0
Temperature: 51 F (11 C)
Dew Point: 39 F (4 C)
Relative Humidity: 61%
Pressure (altimeter): 30.27 in. Hg (1025 hPa)
ob: EGLL 061950Z AUTO 30003KT 9999 NCD 11/04 Q1025 NOSIG
cycle: 20
Southend-On-Sea , United Kingdom (EGMC) 51-34N 000-42E
Apr 06, 2020 - 03:50 PM EDT / 2020.04.06 1950 UTC
Wind: from the WSW (240 degrees) at 7 MPH (6 KT):0
Visibility: greater than 7 mile(s):0
Temperature: 55 F (13 C)
Dew Point: 41 F (5 C)
Relative Humidity: 58%
Pressure (altimeter): 30.24 in. Hg (1024 hPa)
ob: EGMC 061950Z 24006KT CAVOK 13/05 Q1024
cycle: 20
Lydd Airport , United Kingdom (EGMD) 50-57N 000-56E
Apr 06, 2020 - 03:50 PM EDT / 2020.04.06 1950 UTC
Wind: from the SW (230 degrees) at 9 MPH (8 KT):0
Visibility: greater than 7 mile(s):0
Temperature: 50 F (10 C)
Dew Point: 48 F (9 C)
Relative Humidity: 93%
Pressure (altimeter): 30.27 in. Hg (1025 hPa)
ob: EGMD 061950Z AUTO 23008KT 9999 NCD 10/09 Q1025
cycle: 20
Glasgow Airport, United Kingdom (EGPF) 55-52N 004-26W 0M
Apr 06, 2020 - 03:50 PM EDT / 2020.04.06 1950 UTC
Wind: from the SW (220 degrees) at 9 MPH (8 KT):0
Visibility: greater than 7 mile(s):0
Temperature: 42 F (6 C)
Dew Point: 35 F (2 C)
Relative Humidity: 75%
Pressure (altimeter): 30.12 in. Hg (1020 hPa)
ob: EGPF 061950Z AUTO 22008KT 9999 NCD 06/02 Q1020
cycle: 20
Stansted Airport, United Kingdom (EGSS) 51-53N 000-14E 0M
Apr 06, 2020 - 03:50 PM EDT / 2020.04.06 1950 UTC
Wind: from the W (270 degrees) at 2 MPH (2 KT):0
Visibility: greater than 7 mile(s):0
Temperature: 51 F (11 C)
Dew Point: 35 F (2 C)
Relative Humidity: 53%
Pressure (altimeter): 30.24 in. Hg (1024 hPa)
ob: EGSS 061950Z AUTO 27002KT 9999 NCD 11/02 Q1024
cycle: 20
Brize Norton, United Kingdom (EGVN) 51-45N 001-35W 0M
Apr 06, 2020 - 03:50 PM EDT / 2020.04.06 1950 UTC
Wind: from the SW (230 degrees) at 2 MPH (2 KT):0
Visibility: greater than 7 mile(s):0
Temperature: 50 F (10 C)
Dew Point: 37 F (3 C)
Relative Humidity: 61%
Pressure (altimeter): 30.24 in. Hg (1024 hPa)
ob: EGVN 061950Z 23002KT CAVOK 10/03 Q1024 NOSIG
cycle: 20



The data is logged at two minute intervals, but there is data recorded every minute. On the graph, the Blue line represents the average windspeed, the Red line is the maximum gust for that interval, and the Green line is what the wind has dropped off to in the same interval. Fuschia is the Barometer, and the dew point and Blue is humidity.

Use the RELOAD facility on your browser to retrieve the latest data.

Click here for a daily update of the averages/extremes to date for the month

Check *Live* Weather

Created by "Weather Display" software version 10.37S at this start time/date 10:53:18 03/04/2020